Time;durP1;ratioP1;P1;durP2;ratioP2;P2;SDS_P1;SDS_P2;PMS_P1;PMS_P2;Temp;Humidity;BMP_temperature;BMP_pressure;BME280_temperature;BME280_humidity;BME280_pressure;Samples;Min_cycle;Max_cycle;Signal;HPM_P1;HPM_P2
2022/12/06 00:01:24;;;;;;;;;55.67;44.67;;;;;;;;5116507;27;45451;-62
2022/12/06 00:03:51;;;;;;;;;32.67;28.33;;;;;;;;5117647;27;45444;-62
2022/12/06 00:06:18;;;;;;;;;35.67;32.33;;;;;;;;5118755;27;45434;-62
2022/12/06 00:08:44;;;;;;;;;39.67;33.33;;;;;;;;5117479;27;45367;-62
2022/12/06 00:11:11;;;;;;;;;48.33;39.33;;;;;;;;5117467;27;45314;-62
2022/12/06 00:13:36;;;;;;;;;47.67;33.33;;;;;;;;5117755;27;45553;-62
2022/12/06 00:16:03;;;;;;;;;35.67;30.33;;;;;;;;5117513;27;45444;-62
2022/12/06 00:18:30;;;;;;;;;40.33;36.67;;;;;;;;5119825;27;46527;-62
2022/12/06 00:20:55;;;;;;;;;36.33;31.67;;;;;;;;5122918;27;45473;-62
2022/12/06 00:23:20;;;;;;;;;45.67;38.33;;;;;;;;5118421;27;45410;-62
2022/12/06 00:25:46;;;;;;;;;43.33;37.67;;;;;;;;5113155;27;45486;-62
2022/12/06 00:28:11;;;;;;;;;33.00;26.33;;;;;;;;5118425;27;46363;-62
2022/12/06 00:30:36;;;;;;;;;43.33;39.33;;;;;;;;5118339;27;45452;-62
2022/12/06 00:33:01;;;;;;;;;48.00;35.33;;;;;;;;5118539;27;45183;-62
2022/12/06 00:35:27;;;;;;;;;60.67;46.33;;;;;;;;5118740;27;45378;-62
2022/12/06 00:37:52;;;;;;;;;41.00;37.33;;;;;;;;5118611;27;46468;-62
2022/12/06 00:40:17;;;;;;;;;50.67;38.67;;;;;;;;5118440;27;45431;-62
2022/12/06 00:42:42;;;;;;;;;43.67;34.67;;;;;;;;5117090;27;45479;-62
2022/12/06 00:45:08;;;;;;;;;32.67;30.33;;;;;;;;5118410;27;45373;-62
2022/12/06 00:47:33;;;;;;;;;52.00;43.00;;;;;;;;5118298;27;46476;-62
2022/12/06 00:49:58;;;;;;;;;36.00;28.00;;;;;;;;5118489;27;45437;-62
2022/12/06 00:52:23;;;;;;;;;34.00;27.33;;;;;;;;5118553;27;45353;-62
2022/12/06 00:54:48;;;;;;;;;31.33;29.33;;;;;;;;5118581;27;45256;-62
2022/12/06 00:57:15;;;;;;;;;37.67;30.33;;;;;;;;5117930;27;46914;-62
2022/12/06 00:59:40;;;;;;;;;41.33;34.67;;;;;;;;5104651;27;45407;-62
2022/12/06 01:02:06;;;;;;;;;34.33;25.00;;;;;;;;5097853;27;45212;-62
2022/12/06 01:04:31;;;;;;;;;36.33;28.00;;;;;;;;5097558;27;45495;-62
2022/12/06 01:06:56;;;;;;;;;36.00;29.67;;;;;;;;5097589;27;45484;-62
2022/12/06 01:09:22;;;;;;;;;40.33;33.33;;;;;;;;5097242;27;45409;-62
2022/12/06 01:11:47;;;;;;;;;34.33;29.33;;;;;;;;5113327;27;45482;-62
2022/12/06 01:14:12;;;;;;;;;36.00;31.00;;;;;;;;5118538;27;45303;-62
2022/12/06 01:16:37;;;;;;;;;30.33;28.67;;;;;;;;5112366;27;47274;-62
2022/12/06 01:19:03;;;;;;;;;35.00;30.00;;;;;;;;5102828;27;45322;-62
2022/12/06 01:21:29;;;;;;;;;34.33;29.33;;;;;;;;5117710;27;45386;-62
2022/12/06 01:23:54;;;;;;;;;49.33;37.67;;;;;;;;5118256;27;45356;-62
2022/12/06 01:26:24;;;;;;;;;31.67;29.00;;;;;;;;5117844;27;46275;-62
2022/12/06 01:28:50;;;;;;;;;31.67;25.33;;;;;;;;5118088;27;45447;-62
2022/12/06 01:31:15;;;;;;;;;27.67;22.67;;;;;;;;5118369;27;45492;-62
2022/12/06 01:33:41;;;;;;;;;26.33;24.00;;;;;;;;5116849;27;45293;-62
2022/12/06 01:36:06;;;;;;;;;24.00;22.00;;;;;;;;5117458;27;45460;-62
2022/12/06 01:38:31;;;;;;;;;32.67;26.00;;;;;;;;5117674;27;45450;-62
2022/12/06 01:40:56;;;;;;;;;26.67;26.00;;;;;;;;5117925;27;45345;-62
2022/12/06 01:43:33;;;;;;;;;15.33;15.33;;;;;;;;5118121;27;45310;-62
2022/12/06 01:46:01;;;;;;;;;30.33;25.00;;;;;;;;5117432;27;45472;-62
2022/12/06 01:48:26;;;;;;;;;22.67;22.67;;;;;;;;5116756;27;45443;-62
2022/12/06 01:50:54;;;;;;;;;28.00;22.00;;;;;;;;5117378;27;45429;-62
2022/12/06 01:53:19;;;;;;;;;46.00;30.67;;;;;;;;5117708;27;45482;-62
2022/12/06 01:55:45;;;;;;;;;41.00;36.67;;;;;;;;5117110;27;47236;-62
2022/12/06 01:58:31;;;;;;;;;28.33;23.00;;;;;;;;5117692;27;45526;-62
2022/12/06 02:00:56;;;;;;;;;26.33;22.67;;;;;;;;5117101;27;45283;-62
2022/12/06 02:03:24;;;;;;;;;22.67;17.00;;;;;;;;5117553;27;45367;-62
2022/12/06 02:05:50;;;;;;;;;32.33;27.67;;;;;;;;5114854;27;45540;-62
2022/12/06 02:08:16;;;;;;;;;25.33;21.67;;;;;;;;5117402;27;45330;-62
2022/12/06 02:10:41;;;;;;;;;28.00;23.33;;;;;;;;5117355;27;45673;-62
2022/12/06 02:13:07;;;;;;;;;33.67;24.33;;;;;;;;5117840;27;45327;-62
2022/12/06 02:15:47;;;;;;;;;29.00;23.67;;;;;;;;5117188;27;46555;-62
2022/12/06 02:18:18;;;;;;;;;28.67;22.67;;;;;;;;5116928;27;45535;-62
2022/12/06 02:20:51;;;;;;;;;22.33;21.00;;;;;;;;5118662;27;45367;-62
2022/12/06 02:23:22;;;;;;;;;36.33;31.00;;;;;;;;5112329;27;45438;-62
2022/12/06 02:25:53;;;;;;;;;25.67;21.33;;;;;;;;5120462;27;45444;-62
2022/12/06 02:28:41;;;;;;;;;28.00;24.33;;;;;;;;5120899;27;45407;-62
2022/12/06 02:31:12;;;;;;;;;24.67;24.00;;;;;;;;5036727;28;45559;-62
2022/12/06 02:33:47;;;;;;;;;27.67;26.33;;;;;;;;5037313;28;45270;-62
2022/12/06 02:36:26;;;;;;;;;30.00;25.67;;;;;;;;5036407;28;46400;-62
2022/12/06 02:38:54;;;;;;;;;24.33;21.33;;;;;;;;5035784;28;45436;-62
2022/12/06 02:41:39;;;;;;;;;25.33;23.33;;;;;;;;5036965;28;45380;-62
2022/12/06 02:44:06;;;;;;;;;16.33;16.33;;;;;;;;5036268;28;45684;-62
2022/12/06 02:46:34;;;;;;;;;27.67;25.33;;;;;;;;5036683;28;46417;-62
2022/12/06 02:49:01;;;;;;;;;28.33;22.00;;;;;;;;5036612;28;45477;-62
2022/12/06 02:51:28;;;;;;;;;24.33;22.00;;;;;;;;5036783;28;45538;-62
2022/12/06 02:53:55;;;;;;;;;21.33;16.00;;;;;;;;5036747;28;45530;-62
2022/12/06 02:56:21;;;;;;;;;24.00;21.00;;;;;;;;5035458;28;45979;-62
2022/12/06 02:58:46;;;;;;;;;19.33;17.67;;;;;;;;5036279;28;45468;-62
2022/12/06 03:01:17;;;;;;;;;20.00;17.33;;;;;;;;5036577;28;45489;-62
2022/12/06 03:03:51;;;;;;;;;23.00;20.67;;;;;;;;5037036;28;45421;-62
2022/12/06 03:06:17;;;;;;;;;24.67;17.33;;;;;;;;5035953;28;46372;-62
2022/12/06 03:08:48;;;;;;;;;23.33;21.00;;;;;;;;5091530;27;45495;-62
2022/12/06 03:11:13;;;;;;;;;26.00;25.00;;;;;;;;5120276;27;45449;-62
2022/12/06 03:13:48;;;;;;;;;23.67;21.33;;;;;;;;5116957;27;45387;-62
2022/12/06 03:16:18;;;;;;;;;24.00;23.00;;;;;;;;5119944;27;46585;-62
2022/12/06 03:18:55;;;;;;;;;24.67;23.00;;;;;;;;5119962;27;45359;-62
2022/12/06 03:21:26;;;;;;;;;23.67;21.00;;;;;;;;5119696;27;45496;-62
2022/12/06 03:23:52;;;;;;;;;34.00;31.33;;;;;;;;5120117;27;45466;-62
2022/12/06 03:26:21;;;;;;;;;29.00;23.33;;;;;;;;5119608;27;46223;-62
2022/12/06 03:28:47;;;;;;;;;38.33;28.00;;;;;;;;5119154;27;45452;-62
2022/12/06 03:31:13;;;;;;;;;34.33;26.33;;;;;;;;5114679;27;45349;-62
2022/12/06 03:33:46;;;;;;;;;23.33;21.00;;;;;;;;5106328;27;45324;-62
2022/12/06 03:36:12;;;;;;;;;18.67;16.00;;;;;;;;5119242;27;46409;-62
2022/12/06 03:38:44;;;;;;;;;21.67;17.67;;;;;;;;5119260;27;45475;-62
2022/12/06 03:41:11;;;;;;;;;28.33;21.00;;;;;;;;5119837;27;45462;-63
2022/12/06 03:43:36;;;;;;;;;14.33;10.00;;;;;;;;5119770;27;45323;-62
2022/12/06 03:46:10;;;;;;;;;30.67;24.00;;;;;;;;5119457;27;45684;-62
2022/12/06 03:48:44;;;;;;;;;23.00;19.67;;;;;;;;5102745;27;45750;-62
2022/12/06 03:51:11;;;;;;;;;28.00;23.33;;;;;;;;5104104;27;45863;-62
2022/12/06 03:53:44;;;;;;;;;25.33;19.67;;;;;;;;5119608;27;45391;-62
2022/12/06 03:56:10;;;;;;;;;22.33;19.00;;;;;;;;5119310;27;47211;-62
2022/12/06 03:58:35;;;;;;;;;25.67;19.67;;;;;;;;5119095;27;45477;-62
2022/12/06 04:01:03;;;;;;;;;27.33;20.33;;;;;;;;5118774;27;45330;-62
2022/12/06 04:03:28;;;;;;;;;23.33;19.33;;;;;;;;5116359;27;45567;-62
2022/12/06 04:05:54;;;;;;;;;25.00;20.67;;;;;;;;5119092;27;45476;-62
2022/12/06 04:08:20;;;;;;;;;29.00;21.33;;;;;;;;5118803;27;45444;-62
2022/12/06 04:10:45;;;;;;;;;27.67;24.33;;;;;;;;5119329;27;45543;-62
2022/12/06 04:13:11;;;;;;;;;22.33;17.33;;;;;;;;5119326;27;45173;-62
2022/12/06 04:15:37;;;;;;;;;22.67;22.00;;;;;;;;5119190;27;46639;-62
2022/12/06 04:18:12;;;;;;;;;28.00;26.00;;;;;;;;5118706;27;45411;-61
2022/12/06 04:23:43;;;;;;;;;27.00;16.33;;;;;;;;5118866;27;45501;-62
2022/12/06 04:26:10;;;;;;;;;21.33;16.33;;;;;;;;5118719;27;46394;-62
2022/12/06 04:39:31;;;;;;;;;19.00;18.67;;;;;;;;5117519;27;46007;-62
2022/12/06 04:44:40;;;;;;;;;22.33;18.33;;;;;;;;5118283;27;45482;-62
2022/12/06 04:47:06;;;;;;;;;26.00;19.67;;;;;;;;5118265;27;46894;-62
2022/12/06 04:49:31;;;;;;;;;22.00;18.33;;;;;;;;5118602;27;45266;-62
2022/12/06 04:51:57;;;;;;;;;22.67;21.00;;;;;;;;5118502;27;45780;-62
2022/12/06 04:54:23;;;;;;;;;20.67;18.00;;;;;;;;5118156;27;45360;-62
2022/12/06 04:56:48;;;;;;;;;23.00;20.67;;;;;;;;5106500;27;45387;-62
2022/12/06 04:59:13;;;;;;;;;17.33;13.67;;;;;;;;5099981;27;45452;-62
2022/12/06 05:01:38;;;;;;;;;29.67;24.33;;;;;;;;5117492;27;45709;-62
2022/12/06 05:04:03;;;;;;;;;23.67;19.00;;;;;;;;5118024;27;45475;-62
2022/12/06 05:06:29;;;;;;;;;28.67;19.00;;;;;;;;5117448;27;46449;-62
2022/12/06 05:08:54;;;;;;;;;23.67;19.33;;;;;;;;5117826;27;45876;-62
2022/12/06 05:11:19;;;;;;;;;30.33;23.67;;;;;;;;5117880;27;45433;-62
2022/12/06 05:13:44;;;;;;;;;22.67;22.33;;;;;;;;5099807;27;45637;-62
2022/12/06 05:16:12;;;;;;;;;31.00;25.67;;;;;;;;5097277;27;45497;-62
2022/12/06 05:18:37;;;;;;;;;30.67;27.33;;;;;;;;5108253;27;45392;-62
2022/12/06 05:21:05;;;;;;;;;25.00;23.00;;;;;;;;5117789;27;45323;-62
2022/12/06 05:23:34;;;;;;;;;25.67;21.00;;;;;;;;5117746;27;45554;-62
2022/12/06 05:26:00;;;;;;;;;34.33;30.33;;;;;;;;5117195;27;46335;-62
2022/12/06 05:28:25;;;;;;;;;23.67;19.67;;;;;;;;5107354;27;45426;-62
2022/12/06 05:30:50;;;;;;;;;24.33;22.67;;;;;;;;5097083;27;45399;-62
2022/12/06 05:33:16;;;;;;;;;25.33;23.33;;;;;;;;5097066;27;45471;-62
2022/12/06 05:35:41;;;;;;;;;24.00;22.67;;;;;;;;5096595;27;46473;-62
2022/12/06 05:38:06;;;;;;;;;25.67;22.00;;;;;;;;5096747;27;45454;-62
2022/12/06 05:40:31;;;;;;;;;19.33;18.67;;;;;;;;5102526;27;45411;-62
2022/12/06 05:42:56;;;;;;;;;35.33;29.67;;;;;;;;5113504;27;45659;-62
2022/12/06 05:45:22;;;;;;;;;33.33;28.67;;;;;;;;5096605;27;47203;-62
2022/12/06 05:47:47;;;;;;;;;29.67;25.33;;;;;;;;5114760;27;45455;-62
2022/12/06 05:50:13;;;;;;;;;36.00;28.33;;;;;;;;5117567;27;45350;-62
2022/12/06 05:52:38;;;;;;;;;33.00;21.33;;;;;;;;5117728;27;45402;-62
2022/12/06 05:55:03;;;;;;;;;25.00;22.33;;;;;;;;5117709;27;46377;-62
2022/12/06 05:57:28;;;;;;;;;23.67;19.67;;;;;;;;5120893;27;45304;-62
2022/12/06 05:59:54;;;;;;;;;26.67;20.00;;;;;;;;5121080;27;45409;-62
2022/12/06 06:02:19;;;;;;;;;31.33;26.67;;;;;;;;5119862;27;45367;-63
2022/12/06 06:04:44;;;;;;;;;27.00;23.00;;;;;;;;5120822;27;46549;-62
2022/12/06 06:07:09;;;;;;;;;23.33;23.33;;;;;;;;5120230;27;45505;-63
2022/12/06 06:09:34;;;;;;;;;31.00;28.67;;;;;;;;5114587;27;45332;-63
2022/12/06 06:12:00;;;;;;;;;31.33;20.33;;;;;;;;5112053;27;45464;-63
2022/12/06 06:14:25;;;;;;;;;34.00;25.33;;;;;;;;5120486;27;45507;-63
2022/12/06 06:16:51;;;;;;;;;64.33;52.33;;;;;;;;5108684;27;45594;-62
2022/12/06 06:19:16;;;;;;;;;35.00;32.00;;;;;;;;5099822;27;45744;-62
2022/12/06 06:21:41;;;;;;;;;29.33;28.00;;;;;;;;5100151;27;45482;-62
2022/12/06 06:24:06;;;;;;;;;25.67;21.33;;;;;;;;5100746;27;45538;-62
2022/12/06 06:26:32;;;;;;;;;37.67;28.67;;;;;;;;5120044;27;45405;-62
2022/12/06 06:28:57;;;;;;;;;40.33;38.00;;;;;;;;5121070;27;45328;-63
2022/12/06 06:31:22;;;;;;;;;34.00;29.00;;;;;;;;5118603;27;45406;-62
2022/12/06 06:33:47;;;;;;;;;36.33;36.00;;;;;;;;5099966;27;46447;-63
2022/12/06 06:36:13;;;;;;;;;35.00;28.67;;;;;;;;5100064;27;45406;-63
2022/12/06 06:38:38;;;;;;;;;24.67;20.33;;;;;;;;5100035;27;45850;-63
2022/12/06 06:41:03;;;;;;;;;30.33;26.67;;;;;;;;5099967;27;45309;-62
2022/12/06 06:43:29;;;;;;;;;33.50;29.00;;;;;;;;5099826;27;47381;-62
2022/12/06 06:45:54;;;;;;;;;63.67;50.33;;;;;;;;5110948;27;45504;-62
2022/12/06 06:48:20;;;;;;;;;32.67;25.67;;;;;;;;5106641;27;45486;-63
2022/12/06 06:50:46;;;;;;;;;39.00;35.67;;;;;;;;5100349;27;45520;-62
2022/12/06 06:53:11;;;;;;;;;38.00;33.33;;;;;;;;5099480;27;46495;-62
2022/12/06 06:55:36;;;;;;;;;48.00;41.67;;;;;;;;5106783;27;45500;-62
2022/12/06 06:58:02;;;;;;;;;35.33;30.33;;;;;;;;5120363;27;45428;-62
2022/12/06 07:00:28;;;;;;;;;35.33;30.00;;;;;;;;5120525;27;45534;-62
2022/12/06 07:02:53;;;;;;;;;39.67;31.67;;;;;;;;5120300;27;46283;-62
2022/12/06 07:05:18;;;;;;;;;35.33;29.33;;;;;;;;5110576;27;45470;-62
2022/12/06 07:07:45;;;;;;;;;28.33;24.33;;;;;;;;5117635;27;45483;-62
2022/12/06 07:10:10;;;;;;;;;31.00;23.67;;;;;;;;5119781;27;45559;-62
2022/12/06 07:12:36;;;;;;;;;22.33;18.67;;;;;;;;5116263;27;45744;-63
2022/12/06 07:15:01;;;;;;;;;28.00;23.00;;;;;;;;5119819;27;45452;-63
2022/12/06 07:17:26;;;;;;;;;33.00;28.33;;;;;;;;5119833;27;45519;-63
2022/12/06 07:19:51;;;;;;;;;35.33;30.00;;;;;;;;5118831;27;45399;-63
2022/12/06 07:22:16;;;;;;;;;32.67;24.67;;;;;;;;5119174;27;46500;-63
2022/12/06 07:24:42;;;;;;;;;29.67;27.67;;;;;;;;5119750;27;45289;-63
2022/12/06 07:27:07;;;;;;;;;34.67;30.33;;;;;;;;5114247;27;45548;-63
2022/12/06 07:29:32;;;;;;;;;38.33;36.67;;;;;;;;5110775;27;45373;-63
2022/12/06 07:31:58;;;;;;;;;37.00;33.33;;;;;;;;5119714;27;45541;-63
2022/12/06 07:34:23;;;;;;;;;44.33;32.33;;;;;;;;5118578;27;45367;-63
2022/12/06 07:36:48;;;;;;;;;43.00;36.33;;;;;;;;5116703;27;45417;-63
2022/12/06 07:39:13;;;;;;;;;49.00;39.67;;;;;;;;5115849;27;45491;-62
2022/12/06 07:47:06;;;;;;;;;53.00;39.33;;;;;;;;5119554;27;45247;-63
2022/12/06 07:49:32;;;;;;;;;51.00;42.00;;;;;;;;5119998;27;45381;-62
2022/12/06 07:51:57;;;;;;;;;44.00;37.67;;;;;;;;5119294;27;45680;-62
2022/12/06 07:54:23;;;;;;;;;47.33;37.00;;;;;;;;5119327;27;45366;-62
2022/12/06 07:56:49;;;;;;;;;30.33;29.33;;;;;;;;5119807;27;45562;-62
2022/12/06 07:59:14;;;;;;;;;36.33;27.00;;;;;;;;5119456;27;45448;-62
2022/12/06 08:01:39;;;;;;;;;15.00;7.33;;;;;;;;5119475;27;46633;-62
2022/12/06 08:04:05;;;;;;;;;54.33;41.33;;;;;;;;5119118;27;45427;-62
2022/12/06 08:06:31;;;;;;;;;54.67;39.00;;;;;;;;5119281;27;45916;-62
2022/12/06 08:08:57;;;;;;;;;37.00;33.00;;;;;;;;5119785;27;45468;-62
2022/12/06 08:11:23;;;;;;;;;43.33;37.33;;;;;;;;5118789;27;45418;-62
2022/12/06 08:13:48;;;;;;;;;64.00;50.00;;;;;;;;5119171;27;45378;-62
2022/12/06 08:16:14;;;;;;;;;63.33;50.67;;;;;;;;5119042;27;45493;-62
2022/12/06 08:18:40;;;;;;;;;52.00;39.33;;;;;;;;5118133;27;45424;-62
2022/12/06 08:21:05;;;;;;;;;48.00;40.67;;;;;;;;5118878;27;45689;-62
2022/12/06 08:23:30;;;;;;;;;55.67;43.00;;;;;;;;5119010;27;45221;-62
2022/12/06 08:26:00;;;;;;;;;63.67;52.33;;;;;;;;5119005;27;45187;-62
2022/12/06 08:28:26;;;;;;;;;43.33;38.00;;;;;;;;5119124;27;45388;-62
2022/12/06 08:30:52;;;;;;;;;42.00;37.00;;;;;;;;5118597;27;45600;-62
2022/12/06 08:33:17;;;;;;;;;47.67;38.33;;;;;;;;5118872;27;45342;-62
2022/12/06 08:35:42;;;;;;;;;49.67;37.67;;;;;;;;5118880;27;45471;-62
2022/12/06 08:38:07;;;;;;;;;38.67;33.67;;;;;;;;5119339;27;45335;-62
2022/12/06 08:40:33;;;;;;;;;38.00;33.33;;;;;;;;5118404;27;46557;-62
2022/12/06 08:42:58;;;;;;;;;43.67;38.00;;;;;;;;5118655;27;45427;-62
2022/12/06 08:45:23;;;;;;;;;40.33;35.33;;;;;;;;5117461;27;45456;-62
2022/12/06 08:47:48;;;;;;;;;44.00;38.33;;;;;;;;5118584;27;45301;-62
2022/12/06 08:50:13;;;;;;;;;34.67;34.00;;;;;;;;5118511;27;45483;-62
2022/12/06 08:52:39;;;;;;;;;41.00;33.33;;;;;;;;5118519;27;45409;-62
2022/12/06 08:55:04;;;;;;;;;42.00;34.67;;;;;;;;5118295;27;45437;-62
2022/12/06 08:57:30;;;;;;;;;41.33;33.67;;;;;;;;5118811;27;45365;-62
2022/12/06 08:59:56;;;;;;;;;38.67;33.67;;;;;;;;5118212;27;45468;-62
2022/12/06 09:02:21;;;;;;;;;55.33;42.33;;;;;;;;5118359;27;45436;-62
2022/12/06 09:04:48;;;;;;;;;51.00;39.00;;;;;;;;5118409;27;45325;-62
2022/12/06 09:07:14;;;;;;;;;55.33;43.67;;;;;;;;5118702;27;45376;-62
2022/12/06 09:09:39;;;;;;;;;40.33;31.33;;;;;;;;5118097;27;45642;-62
2022/12/06 09:12:05;;;;;;;;;36.00;34.67;;;;;;;;5118121;27;45440;-62
2022/12/06 09:14:30;;;;;;;;;37.00;33.00;;;;;;;;5118510;27;45304;-62
2022/12/06 09:16:55;;;;;;;;;47.33;38.00;;;;;;;;5118246;27;45546;-62
2022/12/06 09:19:20;;;;;;;;;50.33;37.00;;;;;;;;5117978;27;46430;-62
2022/12/06 09:21:45;;;;;;;;;42.67;35.00;;;;;;;;5117828;27;45443;-62
2022/12/06 09:24:12;;;;;;;;;35.67;28.00;;;;;;;;5117995;27;45380;-62
2022/12/06 09:26:38;;;;;;;;;35.67;32.00;;;;;;;;5118330;27;45333;-62
2022/12/06 09:29:03;;;;;;;;;45.00;34.00;;;;;;;;5118306;27;45221;-62
2022/12/06 09:31:28;;;;;;;;;51.33;39.67;;;;;;;;5121835;27;45432;-62
2022/12/06 09:33:53;;;;;;;;;48.00;40.67;;;;;;;;5121900;27;45452;-62
2022/12/06 09:36:21;;;;;;;;;29.67;24.67;;;;;;;;5121873;27;45390;-62
2022/12/06 09:38:49;;;;;;;;;25.00;21.33;;;;;;;;5121607;27;46197;-62
2022/12/06 09:41:33;;;;;;;;;22.67;22.33;;;;;;;;5121456;27;45402;-62
2022/12/06 09:44:14;;;;;;;;;26.00;22.33;;;;;;;;5121433;27;45439;-62
2022/12/06 09:46:43;;;;;;;;;27.00;24.67;;;;;;;;5121773;27;45741;-62
2022/12/06 09:49:19;;;;;;;;;34.33;28.67;;;;;;;;5121398;27;45433;-62
2022/12/06 09:51:56;;;;;;;;;29.33;24.33;;;;;;;;5121313;27;45402;-62
2022/12/06 09:54:27;;;;;;;;;34.67;29.67;;;;;;;;5121348;27;45330;-62
2022/12/06 09:56:52;;;;;;;;;32.33;25.00;;;;;;;;5119890;27;45422;-62
2022/12/06 09:59:27;;;;;;;;;29.00;21.33;;;;;;;;5121182;27;45428;-62
2022/12/06 10:02:02;;;;;;;;;21.00;18.67;;;;;;;;5121386;27;45439;-62
2022/12/06 10:04:30;;;;;;;;;28.00;25.67;;;;;;;;5121252;27;45351;-62
2022/12/06 10:07:06;;;;;;;;;26.33;25.33;;;;;;;;5121114;27;45471;-62
2022/12/06 10:09:39;;;;;;;;;27.00;22.00;;;;;;;;5121053;27;45842;-62
2022/12/06 10:12:19;;;;;;;;;27.33;20.67;;;;;;;;5120732;27;45362;-62
2022/12/06 10:14:55;;;;;;;;;28.33;25.33;;;;;;;;5121066;27;45219;-62
2022/12/06 10:17:36;;;;;;;;;38.00;27.33;;;;;;;;5121200;27;45456;-62
2022/12/06 10:20:10;;;;;;;;;26.00;25.33;;;;;;;;5120472;27;46201;-63
2022/12/06 10:22:44;;;;;;;;;33.33;27.33;;;;;;;;5120666;27;45360;-62
2022/12/06 10:25:22;;;;;;;;;31.67;29.00;;;;;;;;5120647;27;45448;-62
2022/12/06 10:27:48;;;;;;;;;28.33;24.33;;;;;;;;5120858;27;45459;-62
2022/12/06 10:30:14;;;;;;;;;28.00;25.00;;;;;;;;5120809;27;46257;-62
2022/12/06 10:32:54;;;;;;;;;26.00;23.00;;;;;;;;5120710;27;45447;-62
2022/12/06 10:35:23;;;;;;;;;24.33;23.67;;;;;;;;5120781;27;45435;-62
2022/12/06 10:37:48;;;;;;;;;33.00;30.00;;;;;;;;5120689;27;45316;-62
2022/12/06 10:40:16;;;;;;;;;29.67;23.00;;;;;;;;5120615;27;45311;-62
2022/12/06 10:42:44;;;;;;;;;25.33;22.67;;;;;;;;5119599;27;45429;-62
2022/12/06 10:48:31;;;;;;;;;50.00;40.00;;;;;;;;5120828;27;45770;-62
2022/12/06 10:51:09;;;;;;;;;24.67;21.33;;;;;;;;5120188;27;46413;-62
2022/12/06 10:53:39;;;;;;;;;57.33;44.00;;;;;;;;5120495;27;45447;-62
2022/12/06 10:56:12;;;;;;;;;29.67;23.00;;;;;;;;5120447;27;45463;-62
2022/12/06 10:58:41;;;;;;;;;36.67;28.00;;;;;;;;5120255;27;45262;-62
2022/12/06 11:01:13;;;;;;;;;29.67;25.67;;;;;;;;5120171;27;46050;-62
2022/12/06 11:03:41;;;;;;;;;35.00;30.33;;;;;;;;5120399;27;45342;-62
2022/12/06 11:06:30;;;;;;;;;33.33;29.33;;;;;;;;5120325;27;46066;-62
2022/12/06 11:08:57;;;;;;;;;28.00;22.33;;;;;;;;5120236;27;45591;-62
2022/12/06 11:11:25;;;;;;;;;37.67;32.00;;;;;;;;5119793;27;45767;-62
2022/12/06 11:14:05;;;;;;;;;26.67;22.33;;;;;;;;5119932;27;45443;-62
2022/12/06 11:16:43;;;;;;;;;33.67;26.33;;;;;;;;5119986;27;45380;-62
2022/12/06 11:19:19;;;;;;;;;70.33;50.33;;;;;;;;5120237;27;45401;-62
2022/12/06 11:21:52;;;;;;;;;65.00;51.67;;;;;;;;5119305;27;46308;-62
2022/12/06 11:24:31;;;;;;;;;35.00;33.00;;;;;;;;5119587;27;45431;-62
2022/12/06 11:27:03;;;;;;;;;24.00;21.00;;;;;;;;5119896;27;45339;-62
2022/12/06 11:29:29;;;;;;;;;45.00;36.00;;;;;;;;5119799;27;45605;-62
2022/12/06 11:31:57;;;;;;;;;26.33;20.33;;;;;;;;5119213;27;46713;-62
2022/12/06 11:34:25;;;;;;;;;29.00;25.67;;;;;;;;5119878;27;45216;-62
2022/12/06 11:36:52;;;;;;;;;21.67;21.33;;;;;;;;5119570;27;45260;-62
2022/12/06 11:39:17;;;;;;;;;28.00;27.00;;;;;;;;5119957;27;45489;-62
2022/12/06 11:41:45;;;;;;;;;29.00;24.00;;;;;;;;5119254;27;45443;-64
2022/12/06 11:44:12;;;;;;;;;18.67;17.00;;;;;;;;5119264;27;45831;-64
2022/12/06 11:46:38;;;;;;;;;28.00;20.00;;;;;;;;5119676;27;45398;-64
2022/12/06 11:49:13;;;;;;;;;36.00;32.33;;;;;;;;5119789;27;45316;-64
2022/12/06 11:51:38;;;;;;;;;35.00;27.00;;;;;;;;5119211;27;46536;-64
2022/12/06 11:54:14;;;;;;;;;23.33;23.33;;;;;;;;5119316;27;45421;-64
2022/12/06 11:56:39;;;;;;;;;54.67;43.67;;;;;;;;5119577;27;45515;-64
2022/12/06 11:59:04;;;;;;;;;38.33;33.33;;;;;;;;5119353;27;45418;-64
2022/12/06 12:01:56;;;;;;;;;43.67;38.33;;;;;;;;5119124;27;45464;-64
2022/12/06 12:04:23;;;;;;;;;54.33;44.00;;;;;;;;5117943;27;45332;-64
2022/12/06 12:06:50;;;;;;;;;46.33;39.33;;;;;;;;5119127;27;45255;-64
2022/12/06 12:09:18;;;;;;;;;60.00;47.33;;;;;;;;5119271;27;45436;-64
2022/12/06 12:11:52;;;;;;;;;82.25;61.00;;;;;;;;5119292;27;46769;-64
2022/12/06 12:14:23;;;;;;;;;36.67;34.33;;;;;;;;5118671;27;45523;-64
2022/12/06 12:16:50;;;;;;;;;87.00;69.75;;;;;;;;5118866;27;45396;-62
2022/12/06 12:19:28;;;;;;;;;56.33;45.33;;;;;;;;5119477;27;45452;-62
2022/12/06 12:21:54;;;;;;;;;56.00;46.00;;;;;;;;5118538;27;46300;-62
2022/12/06 12:24:38;;;;;;;;;95.00;81.00;;;;;;;;5118782;27;45359;-62
2022/12/06 12:27:23;;;;;;;;;37.33;28.33;;;;;;;;5119061;27;45473;-62
2022/12/06 12:30:08;;;;;;;;;39.67;33.67;;;;;;;;5118947;27;45388;-62
2022/12/06 12:32:33;;;;;;;;;45.33;36.00;;;;;;;;5118663;27;45438;-62
2022/12/06 12:35:16;;;;;;;;;52.00;41.67;;;;;;;;5118182;27;45483;-62
2022/12/06 12:37:42;;;;;;;;;66.00;51.00;;;;;;;;5118979;27;45879;-62
2022/12/06 12:40:19;;;;;;;;;68.67;52.67;;;;;;;;5118812;27;45427;-62
2022/12/06 12:42:45;;;;;;;;;48.00;41.33;;;;;;;;5118463;27;45530;-62
2022/12/06 12:45:16;;;;;;;;;53.33;42.67;;;;;;;;5118402;27;45222;-62
2022/12/06 12:47:54;;;;;;;;;42.00;30.67;;;;;;;;5118665;27;45307;-62
2022/12/06 12:50:21;;;;;;;;;42.33;34.00;;;;;;;;5118839;27;45177;-62
2022/12/06 12:52:47;;;;;;;;;60.00;49.67;;;;;;;;5118421;27;46527;-62
2022/12/06 12:55:12;;;;;;;;;18.33;11.67;;;;;;;;5118248;27;45359;-62
2022/12/06 12:57:37;;;;;;;;;24.00;24.00;;;;;;;;5118615;27;45381;-62
2022/12/06 13:00:03;;;;;;;;;29.67;26.00;;;;;;;;5118585;27;45268;-63
2022/12/06 13:02:29;;;;;;;;;38.00;35.00;;;;;;;;5118188;27;46422;-62
2022/12/06 13:05:04;;;;;;;;;31.00;26.67;;;;;;;;5117654;27;45467;-62
2022/12/06 13:07:33;;;;;;;;;25.67;21.67;;;;;;;;5118095;27;45411;-62
2022/12/06 13:10:16;;;;;;;;;50.33;41.00;;;;;;;;5118558;27;45466;-62
2022/12/06 13:12:44;;;;;;;;;21.33;19.00;;;;;;;;5118109;27;46191;-62
2022/12/06 13:15:19;;;;;;;;;27.67;22.33;;;;;;;;5118265;27;45389;-63
2022/12/06 13:17:48;;;;;;;;;20.33;17.00;;;;;;;;5118231;27;45372;-62
2022/12/06 13:20:34;;;;;;;;;31.00;23.33;;;;;;;;5118313;27;45622;-62
2022/12/06 13:23:02;;;;;;;;;56.67;45.00;;;;;;;;5117755;27;45483;-62
2022/12/06 13:25:27;;;;;;;;;22.00;19.00;;;;;;;;5117909;27;45617;-63
2022/12/06 13:27:55;;;;;;;;;47.67;37.00;;;;;;;;5118044;27;45902;-62
2022/12/06 13:30:25;;;;;;;;;17.67;17.00;;;;;;;;5118386;27;45585;-62
2022/12/06 13:32:53;;;;;;;;;18.33;16.00;;;;;;;;5117781;27;46778;-62
2022/12/06 13:35:21;;;;;;;;;13.67;13.33;;;;;;;;5118003;27;45469;-62
2022/12/06 13:37:49;;;;;;;;;13.33;13.00;;;;;;;;5117952;27;45326;-62
2022/12/06 13:40:33;;;;;;;;;37.67;32.33;;;;;;;;5118032;27;45347;-62
2022/12/06 13:42:59;;;;;;;;;51.67;40.00;;;;;;;;5117671;27;46248;-62
2022/12/06 13:45:36;;;;;;;;;49.67;40.33;;;;;;;;5117737;27;45428;-62
2022/12/06 13:48:02;;;;;;;;;62.33;50.00;;;;;;;;5117810;27;45460;-62
2022/12/06 13:50:28;;;;;;;;;29.00;27.00;;;;;;;;5117992;27;45424;-62
2022/12/06 13:52:53;;;;;;;;;39.67;34.67;;;;;;;;5117661;27;46179;-63
2022/12/06 13:55:24;;;;;;;;;15.67;12.67;;;;;;;;5117526;27;45649;-63
2022/12/06 13:57:50;;;;;;;;;50.00;37.00;;;;;;;;5117733;27;45575;-62
2022/12/06 14:00:30;;;;;;;;;31.33;28.33;;;;;;;;5117762;27;45498;-62
2022/12/06 14:02:57;;;;;;;;;35.00;33.00;;;;;;;;5117572;27;46649;-62
2022/12/06 14:05:41;;;;;;;;;20.00;14.67;;;;;;;;5117131;27;45347;-62
2022/12/06 14:08:09;;;;;;;;;41.67;31.33;;;;;;;;5117340;27;45495;-62
2022/12/06 14:10:34;;;;;;;;;22.00;22.00;;;;;;;;5117663;27;45449;-62
2022/12/06 14:12:59;;;;;;;;;23.33;19.67;;;;;;;;5117312;27;46203;-63
2022/12/06 14:15:25;;;;;;;;;35.00;32.33;;;;;;;;5117083;27;45227;-63
2022/12/06 14:17:51;;;;;;;;;22.33;20.67;;;;;;;;5119868;27;45519;-63
2022/12/06 14:20:19;;;;;;;;;31.33;29.67;;;;;;;;5119995;27;45396;-63
2022/12/06 14:22:45;;;;;;;;;34.00;30.33;;;;;;;;5120440;27;46503;-63
2022/12/06 14:25:19;;;;;;;;;21.00;16.00;;;;;;;;5120064;27;45421;-63
2022/12/06 14:27:59;;;;;;;;;20.00;19.00;;;;;;;;5121256;27;45402;-63
2022/12/06 14:30:24;;;;;;;;;26.00;20.67;;;;;;;;5120666;27;45840;-63
2022/12/06 14:32:51;;;;;;;;;21.00;19.33;;;;;;;;5120265;27;46254;-63
2022/12/06 14:35:16;;;;;;;;;31.67;31.00;;;;;;;;5120301;27;45486;-63
2022/12/06 14:38:01;;;;;;;;;32.00;29.67;;;;;;;;5120298;27;45475;-63
2022/12/06 14:42:59;;;;;;;;;26.00;22.33;;;;;;;;5120902;27;45385;-62
2022/12/06 14:43:16;;;;;;;;;18.33;18.33;;;;;;;;5119820;27;46054;-63
2022/12/06 14:45:42;;;;;;;;;17.67;17.33;;;;;;;;5119858;27;45613;-63
2022/12/06 14:48:09;;;;;;;;;17.33;14.33;;;;;;;;5119878;27;45279;-63